createdAt,value
2019-03-05T00:02:59.935Z,4.43
2019-03-05T00:08:06.900Z,4.20
2019-03-05T00:13:13.581Z,3.47
2019-03-05T00:18:20.021Z,3.17
2019-03-05T00:23:50.168Z,3.87
2019-03-05T00:29:37.651Z,3.30
2019-03-05T00:35:13.690Z,3.40
2019-03-05T00:41:03.302Z,3.13
2019-03-05T00:46:22.636Z,3.17
2019-03-05T00:52:01.935Z,3.30
2019-03-05T00:57:23.929Z,3.57
2019-03-05T01:03:11.409Z,2.80
2019-03-05T01:08:19.706Z,3.07
2019-03-05T01:13:27.094Z,3.40
2019-03-05T01:18:34.481Z,2.80
2019-03-05T01:23:42.457Z,3.53
2019-03-05T01:28:48.501Z,3.47
2019-03-05T01:33:57.215Z,2.90
2019-03-05T01:39:19.814Z,4.03
2019-03-05T01:44:27.206Z,4.07
2019-03-05T01:49:33.941Z,4.30
2019-03-05T01:54:40.403Z,4.03
2019-03-05T01:59:46.234Z,4.77
2019-03-05T02:05:07.226Z,4.27
2019-03-05T02:10:37.428Z,4.50
2019-03-05T02:15:44.006Z,4.00
2019-03-05T02:20:50.249Z,4.27
2019-03-05T02:26:06.611Z,4.03
2019-03-05T02:31:20.113Z,3.63
2019-03-05T02:36:39.876Z,3.77
2019-03-05T02:42:09.205Z,2.83
2019-03-05T02:47:46.817Z,3.90
2019-03-05T02:53:23.055Z,4.30
2019-03-05T02:58:31.885Z,2.97
2019-03-05T03:03:43.510Z,3.30
2019-03-05T03:08:49.432Z,4.10
2019-03-05T03:13:55.955Z,3.30
2019-03-05T03:19:01.919Z,3.37
2019-03-05T03:24:07.956Z,3.27
2019-03-05T03:29:13.977Z,3.43
2019-03-05T03:34:20.639Z,2.27
2019-03-05T03:39:27.171Z,3.20
2019-03-05T03:44:33.699Z,3.50
2019-03-05T03:49:40.367Z,3.27
2019-03-05T03:54:46.619Z,3.27
2019-03-05T03:59:52.597Z,3.50
2019-03-05T04:05:00.970Z,3.47
2019-03-05T04:10:12.040Z,2.90
2019-03-05T04:15:20.894Z,2.57
2019-03-05T04:20:49.783Z,3.10
2019-03-05T04:26:08.741Z,2.13
2019-03-05T04:31:15.850Z,2.60
2019-03-05T04:36:22.586Z,2.37
2019-03-05T04:41:29.336Z,2.30
2019-03-05T04:46:36.646Z,2.30
2019-03-05T04:51:49.193Z,2.17
2019-03-05T04:56:56.175Z,2.00
2019-03-05T05:02:03.106Z,2.10
2019-03-05T05:07:09.994Z,2.40
2019-03-05T05:12:17.781Z,2.00
2019-03-05T05:17:43.029Z,2.03
2019-03-05T05:22:48.998Z,1.97
2019-03-05T05:27:55.774Z,2.10
2019-03-05T05:33:14.856Z,1.70
2019-03-05T05:38:21.634Z,2.20
2019-03-05T05:43:30.990Z,1.50
2019-03-05T05:48:37.613Z,2.10
2019-03-05T05:53:45.056Z,2.60
2019-03-05T05:58:52.974Z,2.10
2019-03-05T06:03:58.885Z,1.70
2019-03-05T06:09:06.282Z,2.10
2019-03-05T06:14:12.929Z,2.00
2019-03-05T06:19:20.295Z,2.67
2019-03-05T06:24:27.816Z,2.30
2019-03-05T06:29:34.551Z,2.17
2019-03-05T06:34:42.665Z,2.40
2019-03-05T06:39:48.702Z,2.67
2019-03-05T06:44:55.416Z,2.57
2019-03-05T06:50:02.210Z,2.67
2019-03-05T06:55:13.770Z,2.77
2019-03-05T07:00:44.089Z,2.90
2019-03-05T07:06:44.371Z,2.60
2019-03-05T07:12:24.760Z,2.53
2019-03-05T07:18:00.856Z,2.93
2019-03-05T07:23:29.485Z,2.17
2019-03-05T07:28:36.139Z,2.33
2019-03-05T07:33:42.700Z,2.40
2019-03-05T07:38:48.674Z,2.03
2019-03-05T07:44:15.217Z,1.60
2019-03-05T07:49:22.558Z,1.60
2019-03-05T07:54:28.955Z,1.80
2019-03-05T07:59:35.862Z,1.70
2019-03-05T08:04:42.650Z,1.80
2019-03-05T08:09:50.120Z,1.30
2019-03-05T08:15:23.545Z,1.20
2019-03-05T08:20:32.646Z,1.23
2019-03-05T08:25:39.515Z,1.80
2019-03-05T08:30:45.543Z,1.70
2019-03-05T08:35:52.435Z,1.90
2019-03-05T08:40:58.387Z,2.00
2019-03-05T08:46:05.292Z,3.00
2019-03-05T08:51:13.978Z,1.90
2019-03-05T08:56:24.454Z,2.37
2019-03-05T09:01:32.702Z,2.00
2019-03-05T09:06:39.460Z,2.13
2019-03-05T09:11:45.507Z,2.30
2019-03-05T09:16:55.006Z,2.03
2019-03-05T09:22:01.853Z,1.83
2019-03-05T09:27:10.218Z,1.60
2019-03-05T09:32:17.734Z,1.87
2019-03-05T09:37:24.241Z,1.70
2019-03-05T09:42:39.496Z,1.60
2019-03-05T09:47:42.185Z,1.33
2019-03-05T09:52:54.978Z,1.53
2019-03-05T09:58:07.425Z,1.80
2019-03-05T10:03:08.649Z,1.50
2019-03-05T10:08:15.351Z,1.77
2019-03-05T10:13:22.456Z,1.00
2019-03-05T10:18:29.104Z,1.20
2019-03-05T10:23:35.900Z,1.30
2019-03-05T10:28:43.479Z,1.30
2019-03-05T10:33:49.672Z,1.60
2019-03-05T10:38:57.565Z,1.70
2019-03-05T10:44:03.271Z,1.50
2019-03-05T10:49:11.235Z,1.90
2019-03-05T10:54:18.004Z,1.27
2019-03-05T10:59:24.961Z,1.63
2019-03-05T11:04:33.157Z,1.87
2019-03-05T11:09:39.872Z,2.37
2019-03-05T11:14:45.877Z,1.27
2019-03-05T11:19:51.886Z,1.40
2019-03-05T11:24:57.817Z,1.30
2019-03-05T11:30:06.329Z,1.50
2019-03-05T11:35:19.599Z,1.63
2019-03-05T11:40:26.776Z,1.40
2019-03-05T11:45:33.925Z,1.53
2019-03-05T11:50:41.243Z,1.50
2019-03-05T11:55:49.508Z,1.30
2019-03-05T12:00:58.834Z,1.67
2019-03-05T12:06:05.526Z,1.80
2019-03-05T12:11:11.504Z,1.30
2019-03-05T12:16:18.736Z,1.53
2019-03-05T12:21:25.748Z,1.40
2019-03-05T12:26:32.496Z,1.30
2019-03-05T12:31:40.511Z,1.50
2019-03-05T12:36:46.540Z,1.30
2019-03-05T12:41:53.444Z,1.30
2019-03-05T12:46:59.563Z,1.50
2019-03-05T12:52:06.194Z,1.77
2019-03-05T12:57:13.000Z,1.57
2019-03-05T13:02:19.876Z,1.90
2019-03-05T13:07:26.484Z,1.80
2019-03-05T13:12:36.055Z,1.80
2019-03-05T13:17:41.187Z,2.20
2019-03-05T13:22:47.065Z,1.70
2019-03-05T13:27:57.643Z,2.13
2019-03-05T13:33:02.380Z,2.57
2019-03-05T13:38:11.113Z,2.93
2019-03-05T13:43:17.839Z,2.77
2019-03-05T13:49:07.863Z,2.60
2019-03-05T13:54:50.004Z,2.83
2019-03-05T14:00:13.006Z,2.57
2019-03-05T14:05:47.629Z,1.90
2019-03-05T14:10:54.713Z,0.80
2019-03-05T14:16:01.635Z,1.33
2019-03-05T14:21:08.469Z,2.03
2019-03-05T14:26:33.751Z,1.77
2019-03-05T14:31:40.845Z,1.73
2019-03-05T14:36:46.920Z,1.93
2019-03-05T14:41:55.405Z,1.83
2019-03-05T14:47:04.671Z,1.60
2019-03-05T14:52:11.646Z,1.60
2019-03-05T14:57:19.391Z,2.00
2019-03-05T15:02:26.409Z,2.27
2019-03-05T15:07:35.032Z,1.90
2019-03-05T15:12:42.069Z,2.37
2019-03-05T15:17:48.292Z,1.47
2019-03-05T15:23:34.801Z,1.97
2019-03-05T15:28:41.783Z,1.60
2019-03-05T15:33:47.799Z,1.23
2019-03-05T15:38:54.516Z,1.30
2019-03-05T15:44:00.538Z,1.20
2019-03-05T15:49:06.545Z,1.17
2019-03-05T15:54:13.637Z,1.70
2019-03-05T15:59:20.310Z,1.40
2019-03-05T16:04:27.659Z,1.47
2019-03-05T16:09:35.085Z,1.20
2019-03-05T16:14:42.643Z,1.50
2019-03-05T16:19:49.058Z,1.57
2019-03-05T16:24:55.886Z,1.93
2019-03-05T16:30:03.274Z,1.60
2019-03-05T16:35:21.399Z,1.90
2019-03-05T16:40:36.210Z,1.83
2019-03-05T16:45:44.953Z,1.80
2019-03-05T16:51:06.893Z,2.00
2019-03-05T16:56:15.512Z,2.07
2019-03-05T17:01:24.286Z,1.97
2019-03-05T17:06:33.004Z,1.93
2019-03-05T17:12:20.164Z,1.67
2019-03-05T17:17:27.612Z,1.70
2019-03-05T17:22:35.095Z,1.57
2019-03-05T17:27:42.177Z,1.40
2019-03-05T17:33:09.603Z,1.53
2019-03-05T17:38:17.155Z,1.77
2019-03-05T17:43:25.337Z,1.77
2019-03-05T17:48:32.620Z,2.50
2019-03-05T17:53:40.305Z,2.43
2019-03-05T17:58:46.761Z,2.40
2019-03-05T18:03:53.027Z,2.80
2019-03-05T18:08:59.096Z,2.57
2019-03-05T18:14:05.580Z,3.00
2019-03-05T18:19:13.348Z,2.97
2019-03-05T18:24:21.380Z,2.77
2019-03-05T18:29:29.338Z,2.50
2019-03-05T18:34:36.488Z,2.40
2019-03-05T18:39:44.691Z,2.67
2019-03-05T18:44:54.154Z,2.50
2019-03-05T18:50:01.415Z,2.50
2019-03-05T18:55:28.066Z,2.97
2019-03-05T19:00:38.948Z,3.20
2019-03-05T19:05:45.401Z,5.77
2019-03-05T19:10:51.944Z,4.83
2019-03-05T19:15:59.332Z,4.40
2019-03-05T19:21:06.873Z,4.10
2019-03-05T19:26:13.852Z,4.10
2019-03-05T19:31:20.842Z,3.80
2019-03-05T19:36:28.343Z,4.20
2019-03-05T19:41:36.090Z,3.83
2019-03-05T19:46:44.177Z,4.37
2019-03-05T19:51:50.729Z,3.77
2019-03-05T19:56:57.361Z,3.50
2019-03-05T20:02:04.869Z,3.37
2019-03-05T20:07:12.433Z,3.67
2019-03-05T20:12:19.798Z,3.30
2019-03-05T20:17:28.268Z,3.47
2019-03-05T20:22:35.921Z,3.53
2019-03-05T20:27:43.794Z,3.00
2019-03-05T20:32:50.083Z,3.40
2019-03-05T20:38:01.239Z,3.47
2019-03-05T20:43:09.029Z,3.63
2019-03-05T20:48:16.199Z,3.60
2019-03-05T20:53:22.857Z,3.93
2019-03-05T20:58:49.077Z,3.27
2019-03-05T21:03:57.063Z,4.27
2019-03-05T21:09:23.248Z,5.07
2019-03-05T21:14:30.628Z,3.77
2019-03-05T21:19:37.405Z,3.97
2019-03-05T21:24:45.116Z,4.13
2019-03-05T21:29:51.386Z,3.93
2019-03-05T21:34:58.419Z,4.20
2019-03-05T21:40:23.339Z,4.37
2019-03-05T21:45:42.505Z,4.30
2019-03-05T21:50:48.658Z,4.83
2019-03-05T21:55:55.310Z,5.20
2019-03-05T22:01:01.316Z,4.83
2019-03-05T22:06:28.913Z,5.97
2019-03-05T22:11:35.448Z,5.70
2019-03-05T22:16:42.174Z,4.93
2019-03-05T22:21:49.833Z,4.93
2019-03-05T22:26:56.184Z,5.23
2019-03-05T22:32:03.190Z,5.30
2019-03-05T22:37:10.067Z,5.40
2019-03-05T22:42:18.479Z,5.33
2019-03-05T22:47:25.297Z,5.70
2019-03-05T22:52:31.691Z,5.67
2019-03-05T22:57:39.582Z,5.00
2019-03-05T23:02:45.568Z,5.17
2019-03-05T23:07:52.945Z,5.63
2019-03-05T23:12:59.252Z,5.77
2019-03-05T23:18:07.642Z,5.83
2019-03-05T23:23:26.379Z,6.37
2019-03-05T23:28:33.126Z,6.20
2019-03-05T23:33:41.370Z,6.30
2019-03-05T23:38:47.383Z,6.53
2019-03-05T23:43:54.304Z,6.93
2019-03-05T23:49:00.415Z,6.83
2019-03-05T23:54:08.635Z,7.00
2019-03-05T23:59:16.912Z,8.60
